Time;durP1;ratioP1;P1;durP2;ratioP2;P2;SDS_P1;SDS_P2;PMS_P1;PMS_P2;Temp;Humidity;BMP_temperature;BMP_pressure;BME280_temperature;BME280_humidity;BME280_pressure;Samples;Min_cycle;Max_cycle;Signal;HPM_P1;HPM_P2
2022/03/23 00:01:15;;;;;;;59.90;33.38;;;10.00;99.90;;;;;;5032680;28;20053;-59
2022/03/23 00:03:42;;;;;;;59.60;30.73;;;10.00;99.90;;;;;;5029918;28;20136;-59
2022/03/23 00:06:09;;;;;;;63.45;32.13;;;10.00;99.90;;;;;;5030099;28;20041;-59
2022/03/23 00:08:36;;;;;;;58.90;35.28;;;10.00;99.90;;;;;;5028333;28;20516;-59
2022/03/23 00:11:03;;;;;;;59.15;31.52;;;9.90;99.90;;;;;;5029015;28;20076;-56
2022/03/23 00:13:30;;;;;;;64.50;34.35;;;9.90;99.90;;;;;;5024748;28;20080;-58
2022/03/23 00:15:56;;;;;;;56.60;32.10;;;9.80;99.90;;;;;;4682596;28;10000333;-56
2022/03/23 00:18:23;;;;;;;58.47;33.40;;;9.80;99.90;;;;;;5032284;28;20132;-59
2022/03/23 00:20:51;;;;;;;56.28;29.95;;;9.80;99.90;;;;;;5032041;28;20123;-58
2022/03/23 00:23:18;;;;;;;55.42;32.85;;;9.80;99.90;;;;;;5031620;28;20485;-58
2022/03/23 00:25:44;;;;;;;57.28;32.00;;;9.80;99.90;;;;;;5028140;28;20377;-57
2022/03/23 00:28:11;;;;;;;54.83;32.83;;;9.70;99.90;;;;;;5038437;28;20081;-58
2022/03/23 00:30:38;;;;;;;54.40;32.08;;;9.70;99.90;;;;;;5028173;28;20049;-59
2022/03/23 00:33:25;;;;;;;54.25;32.28;;;9.60;99.90;;;;;;5041942;28;20044;-58
2022/03/23 00:35:53;;;;;;;58.70;33.15;;;9.60;99.90;;;;;;5033517;28;20107;-57
2022/03/23 00:38:20;;;;;;;63.40;31.55;;;9.50;99.90;;;;;;5039048;28;20045;-58
2022/03/23 00:40:47;;;;;;;55.30;32.33;;;9.50;99.90;;;;;;5027659;28;20046;-59
2022/03/23 00:43:14;;;;;;;54.65;31.80;;;9.40;99.90;;;;;;5039363;28;20566;-58
2022/03/23 00:45:41;;;;;;;66.90;33.60;;;9.40;99.90;;;;;;5028172;28;20054;-57
2022/03/23 00:48:08;;;;;;;63.90;31.20;;;9.30;99.90;;;;;;5036615;28;20055;-59
2022/03/23 00:50:34;;;;;;;53.17;32.20;;;9.40;99.90;;;;;;5028973;28;20384;-58
2022/03/23 00:53:02;;;;;;;56.50;33.53;;;9.30;99.90;;;;;;5038477;28;20044;-58
2022/03/23 00:55:28;;;;;;;63.28;32.88;;;9.40;99.90;;;;;;5031747;28;20053;-61
2022/03/23 00:57:55;;;;;;;53.42;32.00;;;9.30;99.90;;;;;;5034082;28;20065;-59
2022/03/23 01:00:22;;;;;;;64.78;33.15;;;9.20;99.90;;;;;;5046448;28;20045;-57
2022/03/23 01:02:49;;;;;;;57.80;32.95;;;9.20;99.90;;;;;;5041434;28;20136;-58
2022/03/23 01:05:16;;;;;;;53.03;30.73;;;9.20;99.90;;;;;;5038153;28;20049;-58
2022/03/23 01:07:43;;;;;;;61.42;34.50;;;9.20;99.90;;;;;;5043185;28;20451;-60
2022/03/23 01:10:11;;;;;;;56.97;31.10;;;9.10;99.90;;;;;;5043549;28;20745;-58
2022/03/23 01:12:47;;;;;;;63.65;31.30;;;9.10;99.90;;;;;;5036298;28;20049;-59
2022/03/23 01:15:15;;;;;;;57.70;31.65;;;9.00;99.90;;;;;;5043696;28;20049;-58
2022/03/23 01:17:42;;;;;;;56.72;32.42;;;9.00;99.90;;;;;;5044044;28;20309;-59
2022/03/23 01:20:10;;;;;;;56.05;32.25;;;9.00;99.90;;;;;;5036221;28;20045;-59
2022/03/23 01:22:38;;;;;;;60.33;31.75;;;9.00;99.90;;;;;;5028888;28;20049;-58
2022/03/23 01:25:05;;;;;;;60.90;32.42;;;9.00;99.90;;;;;;5037987;28;20521;-59
2022/03/23 01:27:32;;;;;;;60.75;32.03;;;8.90;99.90;;;;;;5032083;28;20041;-58
2022/03/23 01:29:59;;;;;;;61.80;34.70;;;8.90;99.90;;;;;;5043741;28;20099;-59
2022/03/23 01:32:26;;;;;;;54.20;30.83;;;8.80;99.90;;;;;;5042261;28;20042;-59
2022/03/23 01:34:52;;;;;;;54.78;32.83;;;8.70;99.90;;;;;;5039920;28;20531;-56
2022/03/23 01:37:19;;;;;;;57.65;32.28;;;8.60;99.90;;;;;;5049119;28;20041;-57
2022/03/23 01:39:46;;;;;;;55.95;32.72;;;8.60;99.90;;;;;;5036432;28;20108;-58
2022/03/23 01:42:13;;;;;;;57.10;32.42;;;8.60;99.90;;;;;;5041630;28;20045;-57
2022/03/23 01:44:40;;;;;;;56.58;33.17;;;8.60;99.90;;;;;;5038065;28;20052;-58
2022/03/23 01:47:14;;;;;;;56.08;32.88;;;8.60;99.90;;;;;;5035596;28;20045;-57
2022/03/23 01:49:50;;;;;;;66.03;31.83;;;8.60;99.90;;;;;;5036167;28;20041;-57
2022/03/23 01:52:18;;;;;;;62.25;33.42;;;8.60;99.90;;;;;;5035384;28;20090;-59
2022/03/23 01:54:44;;;;;;;57.72;31.08;;;8.60;99.90;;;;;;5042435;28;20081;-59
2022/03/23 01:57:13;;;;;;;59.03;33.40;;;8.50;99.90;;;;;;5041743;28;20076;-59
2022/03/23 01:59:40;;;;;;;53.40;29.55;;;8.50;99.90;;;;;;5040432;28;20083;-57
2022/03/23 02:02:08;;;;;;;52.88;29.02;;;8.50;99.90;;;;;;5042033;28;20080;-58
2022/03/23 02:04:36;;;;;;;57.70;31.02;;;8.50;99.90;;;;;;5031654;28;20041;-57
2022/03/23 02:07:03;;;;;;;54.38;31.08;;;8.40;99.90;;;;;;5039455;28;20088;-58
2022/03/23 02:09:30;;;;;;;56.10;30.75;;;8.40;99.90;;;;;;5031877;28;20046;-59
2022/03/23 02:11:57;;;;;;;60.97;33.38;;;8.30;99.90;;;;;;5038117;28;20046;-58
2022/03/23 02:14:24;;;;;;;58.30;32.58;;;8.30;99.90;;;;;;5031254;28;20131;-58
2022/03/23 02:16:51;;;;;;;57.05;30.25;;;8.30;99.90;;;;;;4694282;28;10000105;-59
2022/03/23 02:19:18;;;;;;;62.30;31.08;;;8.30;99.90;;;;;;5036920;28;20513;-58
2022/03/23 02:21:46;;;;;;;61.63;33.03;;;8.20;99.90;;;;;;5043009;28;20052;-58
2022/03/23 02:24:14;;;;;;;60.20;33.40;;;8.10;99.90;;;;;;5032116;28;20115;-59
2022/03/23 02:26:41;;;;;;;65.35;33.03;;;8.10;99.90;;;;;;5044295;28;20103;-58
2022/03/23 02:29:09;;;;;;;63.22;33.10;;;8.10;99.90;;;;;;5029893;28;20061;-58
2022/03/23 02:31:36;;;;;;;67.53;33.53;;;8.10;99.90;;;;;;5040746;28;20049;-59
2022/03/23 02:34:03;;;;;;;61.05;32.28;;;8.00;99.90;;;;;;5031822;28;20122;-58
2022/03/23 02:36:31;;;;;;;63.67;31.67;;;8.00;99.90;;;;;;5041488;28;20080;-58
2022/03/23 02:38:57;;;;;;;58.13;32.35;;;8.00;99.90;;;;;;5031564;28;20049;-59
2022/03/23 02:41:24;;;;;;;60.53;31.35;;;7.90;99.90;;;;;;5034722;28;20413;-58
2022/03/23 02:43:51;;;;;;;59.30;32.72;;;8.00;99.90;;;;;;5041708;28;20091;-59
2022/03/23 02:46:19;;;;;;;69.60;33.22;;;7.90;99.90;;;;;;5042762;28;20049;-57
2022/03/23 02:48:47;;;;;;;59.90;30.95;;;8.00;99.90;;;;;;5037590;28;20050;-58
2022/03/23 02:51:14;;;;;;;57.75;31.08;;;8.00;99.90;;;;;;5035142;28;20067;-57
2022/03/23 03:02:19;;;;;;;53.88;30.05;;;8.00;99.90;;;;;;5035314;28;20052;-56
2022/03/23 03:04:47;;;;;;;51.00;28.10;;;7.90;99.90;;;;;;5032954;28;20064;-56
2022/03/23 03:07:13;;;;;;;52.25;29.52;;;7.80;99.90;;;;;;5028734;28;20712;-56
2022/03/23 03:09:40;;;;;;;50.05;29.08;;;7.80;99.90;;;;;;5030308;28;20049;-56
2022/03/23 03:12:08;;;;;;;57.53;31.67;;;7.70;99.90;;;;;;5029675;28;20045;-59
2022/03/23 03:14:35;;;;;;;52.60;29.67;;;7.70;99.90;;;;;;5031057;28;20041;-59
2022/03/23 03:17:02;;;;;;;57.65;32.20;;;7.70;99.90;;;;;;5030704;28;20045;-57
2022/03/23 03:19:29;;;;;;;58.95;30.83;;;7.70;99.90;;;;;;5039332;28;20091;-58
2022/03/23 03:21:55;;;;;;;50.45;28.00;;;7.70;99.90;;;;;;5033240;28;20094;-59
2022/03/23 03:24:22;;;;;;;58.58;30.73;;;7.70;99.90;;;;;;5040501;28;20091;-57
2022/03/23 03:26:50;;;;;;;56.33;31.30;;;7.60;99.90;;;;;;5048125;28;20049;-56
2022/03/23 03:29:17;;;;;;;62.83;33.75;;;7.60;99.90;;;;;;5038042;28;20051;-58
2022/03/23 03:31:44;;;;;;;65.85;32.38;;;7.60;99.90;;;;;;5040088;28;20092;-57
2022/03/23 03:34:11;;;;;;;53.95;30.48;;;7.60;99.90;;;;;;5031239;28;20095;-59
2022/03/23 03:36:38;;;;;;;57.33;29.55;;;7.60;99.90;;;;;;5033278;28;20075;-58
2022/03/23 03:39:04;;;;;;;61.60;33.55;;;7.50;99.90;;;;;;5031387;28;20130;-57
2022/03/23 03:41:31;;;;;;;62.17;33.60;;;7.50;99.90;;;;;;5045873;28;20072;-57
2022/03/23 03:43:58;;;;;;;68.15;33.08;;;7.50;99.90;;;;;;5031186;28;20493;-58
2022/03/23 03:46:25;;;;;;;63.60;30.63;;;7.40;99.90;;;;;;5045645;28;20103;-60
2022/03/23 03:48:52;;;;;;;54.10;30.73;;;7.30;99.90;;;;;;5035417;28;20092;-58
2022/03/23 03:51:19;;;;;;;52.75;29.67;;;7.40;99.90;;;;;;5042595;28;20174;-57
2022/03/23 03:53:45;;;;;;;54.15;30.67;;;7.40;99.90;;;;;;5041487;28;20099;-57
2022/03/23 03:56:12;;;;;;;65.93;33.33;;;7.40;99.90;;;;;;5041094;28;20095;-58
2022/03/23 03:58:39;;;;;;;56.33;30.92;;;7.30;99.90;;;;;;5039564;28;20053;-59
2022/03/23 04:01:06;;;;;;;52.35;29.13;;;7.30;99.90;;;;;;5038291;28;20037;-57
2022/03/23 04:03:34;;;;;;;55.92;29.75;;;7.20;99.90;;;;;;5037226;28;20051;-57
2022/03/23 04:06:02;;;;;;;58.88;30.15;;;7.30;99.90;;;;;;5041706;28;20071;-58
2022/03/23 04:08:29;;;;;;;53.83;30.80;;;7.30;99.90;;;;;;5044521;28;21240;-55
2022/03/23 04:10:57;;;;;;;53.25;29.55;;;7.20;99.90;;;;;;5035314;28;20053;-60
2022/03/23 04:13:23;;;;;;;49.50;29.27;;;7.20;99.90;;;;;;5045350;28;20095;-58
2022/03/23 04:15:50;;;;;;;57.10;28.15;;;7.10;99.90;;;;;;5032952;28;20045;-58
2022/03/23 04:18:17;;;;;;;55.55;30.10;;;7.10;99.90;;;;;;5028447;28;20091;-57
2022/03/23 04:20:44;;;;;;;52.53;28.30;;;7.10;99.90;;;;;;5031434;28;20053;-57
2022/03/23 04:23:11;;;;;;;51.40;28.38;;;7.10;99.90;;;;;;5046363;28;20069;-57
2022/03/23 04:25:38;;;;;;;57.95;28.88;;;7.10;99.90;;;;;;5033139;28;20095;-58
2022/03/23 04:28:05;;;;;;;53.83;28.48;;;7.00;99.90;;;;;;5047265;28;20041;-59
2022/03/23 04:30:32;;;;;;;55.28;29.33;;;6.90;99.90;;;;;;5035192;28;20081;-58
2022/03/23 04:32:59;;;;;;;43.65;25.55;;;6.90;99.90;;;;;;5041052;28;20060;-56
2022/03/23 04:35:27;;;;;;;51.22;28.25;;;6.90;99.90;;;;;;5036955;28;20497;-60
2022/03/23 04:37:53;;;;;;;49.67;27.15;;;6.70;99.90;;;;;;5031595;28;20045;-61
2022/03/23 04:40:22;;;;;;;47.47;26.02;;;6.80;99.90;;;;;;5033208;28;20110;-58
2022/03/23 04:42:49;;;;;;;53.33;29.33;;;6.70;99.90;;;;;;5031843;28;20053;-59
2022/03/23 04:45:16;;;;;;;53.08;30.13;;;6.70;99.90;;;;;;5031458;28;20653;-59
2022/03/23 04:47:46;;;;;;;58.35;29.95;;;6.70;99.90;;;;;;5035300;28;20053;-59
2022/03/23 04:50:14;;;;;;;52.33;27.30;;;6.70;99.90;;;;;;5031017;28;20115;-57
2022/03/23 04:52:42;;;;;;;54.00;27.52;;;6.70;99.90;;;;;;5036194;28;20088;-59
2022/03/23 04:55:09;;;;;;;58.50;27.52;;;6.80;99.90;;;;;;5039983;28;20512;-57
2022/03/23 04:57:36;;;;;;;53.83;29.35;;;6.70;99.90;;;;;;5038282;28;20049;-58
2022/03/23 05:00:04;;;;;;;57.25;28.65;;;6.60;99.90;;;;;;5030094;28;20492;-58
2022/03/23 05:02:31;;;;;;;56.40;27.95;;;6.60;99.90;;;;;;5041288;28;20041;-58
2022/03/23 05:04:58;;;;;;;50.90;26.60;;;6.50;99.90;;;;;;5031898;28;20080;-56
2022/03/23 05:07:25;;;;;;;53.30;27.88;;;6.50;99.90;;;;;;5037869;28;20076;-58
2022/03/23 05:09:52;;;;;;;53.65;28.77;;;6.40;99.90;;;;;;5046236;28;20112;-59
2022/03/23 05:12:19;;;;;;;59.72;29.80;;;6.30;99.90;;;;;;5036677;28;20045;-58
2022/03/23 05:14:45;;;;;;;56.13;29.45;;;6.30;99.90;;;;;;5028938;28;20132;-57
2022/03/23 05:17:12;;;;;;;53.42;30.23;;;6.30;99.90;;;;;;5043346;28;20040;-58
2022/03/23 05:19:39;;;;;;;52.75;27.27;;;6.30;99.90;;;;;;5031734;28;20049;-59
2022/03/23 05:22:06;;;;;;;48.33;27.38;;;6.20;99.90;;;;;;5039391;28;20554;-58
2022/03/23 05:24:33;;;;;;;53.08;27.95;;;6.20;99.90;;;;;;5039321;28;20083;-60
2022/03/23 05:27:00;;;;;;;54.40;27.23;;;6.20;99.90;;;;;;5043497;28;20049;-57
2022/03/23 05:29:27;;;;;;;50.53;26.77;;;6.10;99.90;;;;;;5036214;28;20042;-58
2022/03/23 05:31:53;;;;;;;54.22;27.98;;;6.10;99.90;;;;;;5034795;28;20061;-57
2022/03/23 05:34:20;;;;;;;51.20;26.00;;;6.10;99.90;;;;;;5037667;28;20496;-58
2022/03/23 05:36:47;;;;;;;52.15;28.15;;;6.10;99.90;;;;;;5035856;28;20634;-59
2022/03/23 05:39:14;;;;;;;57.85;29.05;;;6.10;99.90;;;;;;5029309;28;20483;-59
2022/03/23 05:41:41;;;;;;;48.35;27.38;;;6.20;99.90;;;;;;5033851;28;20536;-57
2022/03/23 05:44:08;;;;;;;50.30;24.98;;;6.20;99.90;;;;;;5038673;28;20049;-59
2022/03/23 05:46:35;;;;;;;55.05;27.45;;;6.30;99.90;;;;;;5045592;28;20080;-59
2022/03/23 05:49:02;;;;;;;54.58;27.75;;;6.20;99.90;;;;;;5041751;28;20497;-56
2022/03/23 05:51:29;;;;;;;55.45;27.88;;;6.20;99.90;;;;;;5030045;28;20653;-59
2022/03/23 05:53:56;;;;;;;54.75;26.67;;;6.10;99.90;;;;;;5029602;28;20063;-57
2022/03/23 05:56:23;;;;;;;58.05;28.73;;;6.20;99.90;;;;;;5029424;28;20077;-58
2022/03/23 05:58:49;;;;;;;48.25;26.77;;;6.20;99.90;;;;;;5029214;28;20089;-58
2022/03/23 06:01:16;;;;;;;50.83;26.65;;;6.30;99.90;;;;;;5029485;28;20099;-59
2022/03/23 06:03:44;;;;;;;57.08;30.35;;;6.30;99.90;;;;;;5028938;28;20053;-58
2022/03/23 06:06:10;;;;;;;56.65;29.45;;;6.30;99.90;;;;;;5028737;28;20115;-57
2022/03/23 06:08:37;;;;;;;61.72;30.60;;;6.20;99.90;;;;;;5029130;28;20517;-58
2022/03/23 06:11:04;;;;;;;67.28;31.33;;;6.20;99.90;;;;;;5029370;28;20103;-57
2022/03/23 06:13:31;;;;;;;56.38;29.60;;;6.20;99.90;;;;;;5036275;28;20060;-59
2022/03/23 06:15:57;;;;;;;61.47;28.90;;;6.20;99.90;;;;;;5030526;28;20080;-58
2022/03/23 06:18:24;;;;;;;60.50;29.08;;;6.20;99.90;;;;;;5032947;28;20477;-54
2022/03/23 06:20:52;;;;;;;61.05;30.80;;;6.20;99.90;;;;;;5037246;28;20500;-58
2022/03/23 06:23:18;;;;;;;63.22;31.50;;;6.20;99.90;;;;;;5032259;28;20041;-55
2022/03/23 06:25:45;;;;;;;65.35;31.20;;;6.20;99.90;;;;;;5046675;28;20080;-57
2022/03/23 06:28:12;;;;;;;64.32;30.85;;;6.20;99.90;;;;;;5042107;28;20049;-56
2022/03/23 06:30:39;;;;;;;60.78;31.27;;;6.30;99.90;;;;;;5037967;28;20508;-57
2022/03/23 06:33:06;;;;;;;65.45;31.10;;;6.30;99.90;;;;;;5038617;28;20094;-56
2022/03/23 06:35:33;;;;;;;60.67;31.98;;;6.30;99.90;;;;;;5039969;28;20099;-57
2022/03/23 06:38:00;;;;;;;63.70;32.42;;;6.30;99.90;;;;;;5035665;28;20060;-53
2022/03/23 06:40:27;;;;;;;63.38;30.90;;;6.40;99.90;;;;;;5038628;28;20107;-58
2022/03/23 06:42:54;;;;;;;81.82;36.83;;;6.40;99.90;;;;;;5048497;28;20051;-59
2022/03/23 06:45:20;;;;;;;64.97;31.90;;;6.40;99.90;;;;;;5030531;28;20064;-59
2022/03/23 06:47:47;;;;;;;58.33;29.75;;;6.50;99.90;;;;;;5037835;28;20091;-58
2022/03/23 06:50:14;;;;;;;75.82;30.15;;;6.40;99.90;;;;;;5039913;28;20041;-57
2022/03/23 06:52:41;;;;;;;68.45;32.58;;;6.50;99.90;;;;;;5034326;28;20041;-66
2022/03/23 06:55:08;;;;;;;66.15;31.55;;;6.50;99.90;;;;;;5035278;28;20056;-58
2022/03/23 06:57:35;;;;;;;60.58;29.80;;;6.50;99.90;;;;;;5043317;28;20041;-58
2022/03/23 07:00:07;;;;;;;60.45;30.63;;;6.50;99.90;;;;;;5039812;28;20072;-58
2022/03/23 07:02:33;;;;;;;67.25;32.20;;;6.60;99.90;;;;;;5040901;28;20045;-58
2022/03/23 07:05:08;;;;;;;57.90;30.48;;;6.70;99.90;;;;;;5029590;28;20055;-57
2022/03/23 07:07:36;;;;;;;66.40;32.22;;;6.80;99.90;;;;;;5039983;28;20090;-59
2022/03/23 07:10:07;;;;;;;61.25;32.85;;;6.80;99.90;;;;;;5030005;28;20053;-58
2022/03/23 07:12:33;;;;;;;58.65;30.80;;;6.80;99.90;;;;;;5042212;28;20037;-58
2022/03/23 07:15:00;;;;;;;55.60;30.17;;;6.90;99.90;;;;;;5040414;28;20045;-57
2022/03/23 07:17:27;;;;;;;59.95;32.42;;;6.90;99.90;;;;;;5030692;28;20057;-57
2022/03/23 07:19:54;;;;;;;69.30;33.65;;;7.00;99.90;;;;;;5030564;28;20131;-54
2022/03/23 07:22:21;;;;;;;55.60;29.50;;;7.00;99.90;;;;;;5039404;28;20103;-57
2022/03/23 07:24:47;;;;;;;65.78;33.95;;;7.10;99.90;;;;;;5028761;28;20091;-57
2022/03/23 07:27:14;;;;;;;59.97;32.20;;;7.10;99.90;;;;;;5039553;28;20099;-57
2022/03/23 07:29:47;;;;;;;66.22;34.42;;;7.20;99.90;;;;;;5038267;28;20049;-59
2022/03/23 07:32:14;;;;;;;62.60;34.95;;;7.30;99.90;;;;;;5034374;28;20057;-57
2022/03/23 07:34:40;;;;;;;66.05;36.28;;;7.40;99.90;;;;;;5042501;28;20496;-58
2022/03/23 07:37:07;;;;;;;70.38;33.65;;;7.50;99.90;;;;;;5032054;28;20053;-59
2022/03/23 07:39:34;;;;;;;70.18;35.45;;;7.60;99.90;;;;;;5046976;28;20512;-58
2022/03/23 07:42:02;;;;;;;73.10;36.00;;;7.70;99.90;;;;;;5033983;28;20099;-57
2022/03/23 07:44:30;;;;;;;83.35;37.92;;;7.80;99.90;;;;;;5045111;28;20168;-56
2022/03/23 07:46:57;;;;;;;70.47;35.80;;;7.90;99.90;;;;;;5034072;28;20124;-58
2022/03/23 07:49:23;;;;;;;73.20;36.45;;;8.10;99.90;;;;;;5023691;28;20045;-57
2022/03/23 07:51:50;;;;;;;67.20;36.75;;;8.10;99.90;;;;;;5024329;28;20053;-60
2022/03/23 07:54:17;;;;;;;75.82;37.17;;;8.30;99.90;;;;;;5023017;28;20115;-57
2022/03/23 07:56:44;;;;;;;86.95;37.92;;;8.40;99.90;;;;;;5022807;28;20080;-57
2022/03/23 07:59:11;;;;;;;83.93;37.38;;;8.50;99.90;;;;;;5023030;28;20041;-59
2022/03/23 08:01:38;;;;;;;79.07;39.25;;;8.60;99.90;;;;;;5025839;28;20573;-58
2022/03/23 08:04:05;;;;;;;71.53;36.20;;;8.70;99.90;;;;;;5036802;28;20049;-58
2022/03/23 08:06:35;;;;;;;85.55;38.97;;;8.80;99.90;;;;;;5039601;28;20491;-57
2022/03/23 08:09:03;;;;;;;80.50;37.58;;;8.90;99.90;;;;;;5038557;28;20528;-57
2022/03/23 08:11:30;;;;;;;72.55;40.05;;;9.00;99.90;;;;;;5035652;28;20076;-58
2022/03/23 08:13:57;;;;;;;62.47;35.70;;;9.20;99.90;;;;;;5036151;28;20073;-58
2022/03/23 08:16:24;;;;;;;67.28;35.60;;;9.30;99.90;;;;;;5028355;28;20064;-59
2022/03/23 08:18:54;;;;;;;68.10;36.95;;;9.40;99.90;;;;;;5026181;28;20110;-58
2022/03/23 08:21:21;;;;;;;76.88;39.25;;;9.50;99.90;;;;;;5026560;28;20077;-59
2022/03/23 08:23:48;;;;;;;78.65;39.42;;;9.70;99.90;;;;;;5026623;28;20045;-58
2022/03/23 08:26:15;;;;;;;77.35;41.45;;;9.70;99.90;;;;;;5026719;28;20060;-59
2022/03/23 08:28:43;;;;;;;80.80;41.15;;;9.80;99.90;;;;;;5026189;28;20420;-57
2022/03/23 08:31:10;;;;;;;76.43;39.72;;;10.00;99.90;;;;;;5030544;28;20123;-58
2022/03/23 08:33:38;;;;;;;72.65;37.50;;;10.10;99.90;;;;;;5029247;28;20067;-59
2022/03/23 08:36:06;;;;;;;69.40;36.35;;;10.20;99.90;;;;;;5026606;28;20123;-57
2022/03/23 08:38:33;;;;;;;71.47;37.13;;;10.30;99.90;;;;;;5038961;28;20076;-57
2022/03/23 08:41:00;;;;;;;69.07;35.20;;;10.50;99.90;;;;;;5034412;28;20061;-59
2022/03/23 08:43:27;;;;;;;64.47;33.53;;;10.60;99.90;;;;;;5037563;28;20103;-58
2022/03/23 08:45:56;;;;;;;77.60;39.15;;;10.70;99.90;;;;;;5042010;28;20419;-57
2022/03/23 08:48:23;;;;;;;67.07;38.00;;;10.80;99.90;;;;;;5038470;28;20116;-56
2022/03/23 08:50:51;;;;;;;70.60;34.88;;;10.90;99.90;;;;;;5038868;28;20199;-57
2022/03/23 08:53:19;;;;;;;69.70;33.60;;;11.00;99.90;;;;;;5043492;28;20079;-56
2022/03/23 08:55:46;;;;;;;53.40;31.08;;;11.20;99.90;;;;;;5029161;28;20053;-59
2022/03/23 08:58:13;;;;;;;56.80;28.13;;;11.30;99.90;;;;;;5033033;28;20060;-58
2022/03/23 09:00:49;;;;;;;53.17;30.08;;;11.40;99.90;;;;;;5040431;28;20052;-57
2022/03/23 09:03:19;;;;;;;52.72;29.80;;;11.50;99.90;;;;;;5032942;28;20049;-57
2022/03/23 09:05:47;;;;;;;63.53;29.42;;;11.60;99.90;;;;;;5040914;28;20460;-57
2022/03/23 09:08:13;;;;;;;50.58;27.42;;;11.80;99.90;;;;;;5033246;28;20049;-59
2022/03/23 09:10:40;;;;;;;55.75;26.58;;;11.90;99.90;;;;;;5038867;28;20072;-58
2022/03/23 09:13:07;;;;;;;60.15;28.60;;;12.00;99.90;;;;;;5041319;28;20065;-58
2022/03/23 09:15:34;;;;;;;55.78;28.73;;;12.10;99.90;;;;;;5041607;28;20512;-57
2022/03/23 09:18:01;;;;;;;58.42;29.40;;;12.20;99.60;;;;;;5030269;28;20095;-54
2022/03/23 09:20:28;;;;;;;54.97;30.38;;;12.40;99.40;;;;;;5041968;28;20057;-57
2022/03/23 09:22:56;;;;;;;63.00;31.40;;;12.80;99.20;;;;;;5036009;28;20099;-58
2022/03/23 09:25:23;;;;;;;53.33;30.95;;;13.20;99.00;;;;;;5034639;28;20041;-56
2022/03/23 09:27:50;;;;;;;57.15;28.60;;;13.60;98.60;;;;;;5043494;28;20119;-58
2022/03/23 09:30:17;;;;;;;56.00;29.88;;;13.90;98.20;;;;;;5034241;28;20057;-58
2022/03/23 09:32:46;;;;;;;59.70;30.23;;;14.20;97.60;;;;;;5033214;28;20081;-58
2022/03/23 09:35:14;;;;;;;52.95;30.75;;;14.50;97.40;;;;;;5036251;28;20064;-57
2022/03/23 09:37:50;;;;;;;64.28;31.58;;;14.70;96.70;;;;;;5034428;28;20049;-58
2022/03/23 09:40:31;;;;;;;64.22;32.08;;;15.00;96.40;;;;;;5035235;28;20180;-59
2022/03/23 09:43:11;;;;;;;51.60;30.75;;;15.20;95.40;;;;;;5037707;28;20045;-59
2022/03/23 09:48:12;;;;;;;52.05;28.15;;;15.60;95.50;;;;;;5034655;28;20532;-58
2022/03/23 09:50:43;;;;;;;53.08;29.27;;;15.80;95.40;;;;;;5032417;28;20472;-58
2022/03/23 09:53:10;;;;;;;49.78;27.63;;;15.70;94.80;;;;;;5035884;28;20084;-58
2022/03/23 09:55:37;;;;;;;48.05;28.67;;;15.60;94.70;;;;;;5032945;28;20048;-56
2022/03/23 09:58:04;;;;;;;53.55;28.20;;;15.30;94.50;;;;;;5037316;28;20079;-58
2022/03/23 10:00:37;;;;;;;47.65;27.48;;;15.30;94.50;;;;;;5036514;28;20049;-58
2022/03/23 10:03:07;;;;;;;49.73;27.30;;;15.20;93.50;;;;;;5047752;28;20134;-59
2022/03/23 10:05:58;;;;;;;42.92;26.25;;;15.20;94.00;;;;;;5037124;28;20053;-58
2022/03/23 10:08:50;;;;;;;48.40;27.05;;;15.20;92.50;;;;;;5036641;28;20069;-60
2022/03/23 10:11:54;;;;;;;52.60;26.27;;;15.20;92.10;;;;;;5032962;28;20084;-57
2022/03/23 10:14:54;;;;;;;48.60;24.10;;;15.10;91.90;;;;;;5043640;28;20057;-58
2022/03/23 10:17:55;;;;;;;46.25;23.17;;;15.10;91.10;;;;;;5038281;28;20156;-57
2022/03/23 10:20:22;;;;;;;47.63;24.13;;;15.10;89.80;;;;;;5029173;28;20084;-57
2022/03/23 10:22:51;;;;;;;39.25;21.98;;;15.20;91.70;;;;;;5040895;28;20092;-56
2022/03/23 10:25:20;;;;;;;44.70;24.02;;;15.20;92.00;;;;;;5032188;28;20045;-58
2022/03/23 10:27:47;;;;;;;41.22;20.77;;;15.20;91.90;;;;;;5033737;28;20084;-57
2022/03/23 10:30:14;;;;;;;40.40;22.57;;;15.20;91.60;;;;;;4994002;28;1298296;-58
2022/03/23 10:32:44;;;;;;;42.50;20.38;;;15.30;91.00;;;;;;5040980;28;20351;-59
2022/03/23 10:35:15;;;;;;;46.47;22.73;;;15.20;91.00;;;;;;5029292;28;20440;-58
2022/03/23 10:37:43;;;;;;;44.65;22.58;;;15.30;90.90;;;;;;5039271;28;20080;-61
2022/03/23 10:40:17;;;;;;;40.03;20.73;;;15.30;91.20;;;;;;5032152;28;20493;-58
2022/03/23 10:42:44;;;;;;;38.05;21.17;;;15.30;90.60;;;;;;5038132;28;20053;-59
2022/03/23 10:45:18;;;;;;;38.25;19.45;;;15.40;90.90;;;;;;5032437;28;20044;-54
2022/03/23 10:47:45;;;;;;;30.60;17.60;;;15.50;90.20;;;;;;5034718;28;20559;-57
2022/03/23 10:50:17;;;;;;;35.00;17.50;;;15.50;90.00;;;;;;5033978;28;20045;-57
2022/03/23 10:52:55;;;;;;;55.30;21.40;;;15.60;88.70;;;;;;5033936;28;20684;-58
2022/03/23 10:55:23;;;;;;;31.77;15.13;;;15.60;87.30;;;;;;5037106;28;20045;-58
2022/03/23 10:57:59;;;;;;;29.52;15.65;;;15.70;87.80;;;;;;5033463;28;20100;-55
2022/03/23 11:00:35;;;;;;;26.52;12.60;;;15.80;81.40;;;;;;5028773;28;20099;-58
2022/03/23 11:03:04;;;;;;;32.20;16.13;;;15.80;79.30;;;;;;5034525;28;20037;-57
2022/03/23 11:05:38;;;;;;;30.45;15.93;;;15.90;82.70;;;;;;5045853;28;20056;-56
2022/03/23 11:08:11;;;;;;;34.80;17.55;;;16.00;85.40;;;;;;5038144;28;20049;-57
2022/03/23 11:16:30;;;;;;;37.35;15.80;;;16.10;82.80;;;;;;5030096;28;20091;-58
2022/03/23 11:19:12;;;;;;;26.92;15.82;;;16.30;80.90;;;;;;5037870;28;20087;-58
2022/03/23 11:22:09;;;;;;;37.50;17.90;;;16.40;78.70;;;;;;5041229;28;20428;-55
2022/03/23 11:24:36;;;;;;;26.42;15.05;;;16.50;69.10;;;;;;5032216;28;20598;-58
2022/03/23 11:27:08;;;;;;;29.02;15.23;;;16.60;80.50;;;;;;5028110;28;20046;-58
2022/03/23 11:29:37;;;;;;;26.85;13.55;;;16.60;73.10;;;;;;5039641;28;20069;-56
2022/03/23 11:32:08;;;;;;;24.88;13.25;;;16.60;79.20;;;;;;5028993;28;20053;-56
2022/03/23 11:34:36;;;;;;;29.02;13.73;;;16.60;72.00;;;;;;5037568;28;20155;-58
2022/03/23 11:37:04;;;;;;;27.13;12.30;;;16.60;77.10;;;;;;5030648;28;20057;-57
2022/03/23 11:39:31;;;;;;;27.20;12.00;;;16.60;76.50;;;;;;5032716;28;20069;-58
2022/03/23 11:42:03;;;;;;;28.52;11.60;;;16.60;75.30;;;;;;5036250;28;20065;-56
2022/03/23 11:44:30;;;;;;;23.55;11.75;;;16.70;74.70;;;;;;5034274;28;20071;-58
2022/03/23 11:47:00;;;;;;;20.85;11.63;;;16.80;74.80;;;;;;5046748;28;20098;-58
2022/03/23 11:50:02;;;;;;;20.25;11.48;;;16.80;69.90;;;;;;5032476;28;20049;-58
2022/03/23 11:52:52;;;;;;;25.10;13.90;;;16.80;67.60;;;;;;5017331;28;20635;-60
2022/03/23 11:55:38;;;;;;;19.80;11.02;;;16.80;57.00;;;;;;5036115;28;20041;-58
2022/03/23 11:58:16;;;;;;;19.02;10.68;;;16.80;68.00;;;;;;5027266;28;20077;-58
2022/03/23 12:00:50;;;;;;;21.85;10.00;;;16.70;62.10;;;;;;5040025;28;20049;-60
2022/03/23 12:03:45;;;;;;;30.02;11.82;;;16.80;65.90;;;;;;5027725;28;20045;-57
2022/03/23 12:06:13;;;;;;;23.20;10.75;;;16.80;58.80;;;;;;5038977;28;20049;-58
2022/03/23 12:08:50;;;;;;;24.40;12.20;;;16.90;68.30;;;;;;5027608;28;20258;-59
2022/03/23 12:11:41;;;;;;;21.40;11.52;;;16.80;61.60;;;;;;5039551;28;20102;-58
2022/03/23 12:14:42;;;;;;;16.48;9.77;;;17.00;59.00;;;;;;5027196;28;20470;-59
2022/03/23 12:17:15;;;;;;;17.95;9.65;;;17.10;56.60;;;;;;4996574;28;20044;-57
2022/03/23 12:20:16;;;;;;;17.88;9.15;;;17.20;57.60;;;;;;5029061;28;20050;-59
2022/03/23 12:22:52;;;;;;;23.70;9.60;;;17.30;55.90;;;;;;4992254;28;20520;-58
2022/03/23 12:25:31;;;;;;;21.17;10.05;;;17.30;59.30;;;;;;5030138;28;20364;-59
2022/03/23 12:28:35;;;;;;;15.10;8.90;;;17.30;58.90;;;;;;5035740;28;20140;-57
2022/03/23 12:31:09;;;;;;;18.45;9.32;;;17.30;54.30;;;;;;5026606;28;20057;-60
2022/03/23 12:34:09;;;;;;;26.60;10.27;;;17.40;60.60;;;;;;5026671;28;20108;-57
2022/03/23 12:39:51;;;;;;;19.08;7.88;;;17.50;62.10;;;;;;5026921;28;20679;-56
2022/03/23 12:42:25;;;;;;;21.50;8.80;;;17.60;53.60;;;;;;5026482;28;20050;-58
2022/03/23 12:45:09;;;;;;;16.63;8.65;;;17.70;55.30;;;;;;5026753;28;20370;-57
2022/03/23 12:47:36;;;;;;;15.30;8.57;;;17.80;52.50;;;;;;5026242;28;20439;-58
2022/03/23 12:58:39;;;;;;;16.20;7.72;;;17.90;58.10;;;;;;5037377;28;20045;-58
2022/03/23 13:01:13;;;;;;;20.15;8.68;;;17.90;56.60;;;;;;5029063;28;20089;-58
2022/03/23 13:03:47;;;;;;;20.00;7.15;;;17.90;52.60;;;;;;5040572;28;20120;-59
2022/03/23 13:06:18;;;;;;;22.15;9.18;;;17.90;56.90;;;;;;5029177;28;20600;-59
2022/03/23 13:08:50;;;;;;;16.65;7.75;;;18.00;56.40;;;;;;5042150;28;20053;-59
2022/03/23 13:11:21;;;;;;;17.95;9.20;;;17.90;55.40;;;;;;5035914;28;20077;-58
2022/03/23 13:13:50;;;;;;;16.98;7.43;;;17.90;51.30;;;;;;5040256;28;20053;-59